You are not logged in, Click here to log in
機場資訊:YMLT Welcome to Taiwan Airways 台灣虛擬航空
ICAO: YMLT Country: Launceston
Latitude: -41.5453 Longitude: 147.214
Total Arrivals: 1 Total Departures: 1
Latest Arrival: JQ745 (YSSY-YMLT)Jason. Li Latest Departure: FS82 (YMLT-NZCH)Jason. Li
Scenery:
METAR : YMLT 141839Z AUTO 00000KT 6000 // BKN016 10/09 Q1011 RF00.0/000.0

Launceston Airport